Time;durP1;ratioP1;P1;durP2;ratioP2;P2;SDS_P1;SDS_P2;PMS_P1;PMS_P2;Temp;Humidity;BMP_temperature;BMP_pressure;BME280_temperature;BME280_humidity;BME280_pressure;Samples;Min_cycle;Max_cycle;Signal;HPM_P1;HPM_P2
2021/01/04 00:02:47;;;;;;;59.20;24.60;;;5.70;76.70;;;;;;5113526;28;20490;-74
2021/01/04 00:05:38;;;;;;;47.85;21.10;;;5.70;76.90;;;;;;5113417;28;20038;-74
2021/01/04 00:08:25;;;;;;;52.55;23.83;;;5.70;76.70;;;;;;5113734;28;20032;-74
2021/01/04 00:11:12;;;;;;;49.75;21.90;;;5.70;77.00;;;;;;5113199;28;20047;-74
2021/01/04 00:13:43;;;;;;;51.85;23.70;;;5.70;76.90;;;;;;5113849;28;20028;-74
2021/01/04 00:16:35;;;;;;;50.67;22.25;;;5.70;76.70;;;;;;5112224;28;20040;-74
2021/01/04 00:19:15;;;;;;;53.60;23.00;;;5.70;76.90;;;;;;5097552;28;20388;-74
2021/01/04 00:21:40;;;;;;;47.92;21.33;;;5.70;76.90;;;;;;5113173;28;20030;-74
2021/01/04 00:24:16;;;;;;;50.70;21.35;;;5.60;77.00;;;;;;5114613;28;20024;-73
2021/01/04 00:26:51;;;;;;;48.95;21.33;;;5.60;77.30;;;;;;5117401;28;20031;-74
2021/01/04 00:29:19;;;;;;;43.08;19.05;;;5.60;77.40;;;;;;5111930;28;20047;-74
2021/01/04 00:31:51;;;;;;;43.45;20.20;;;5.60;77.40;;;;;;5116953;28;20037;-73
2021/01/04 00:34:25;;;;;;;45.65;21.00;;;5.70;77.40;;;;;;5115451;28;20031;-75
2021/01/04 00:37:09;;;;;;;43.28;20.58;;;5.60;77.40;;;;;;5115800;28;20487;-74
2021/01/04 00:39:57;;;;;;;45.20;20.13;;;5.60;77.40;;;;;;5117649;28;20050;-74
2021/01/04 00:42:43;;;;;;;42.03;20.65;;;5.60;77.20;;;;;;5104913;28;20024;-75
2021/01/04 00:45:33;;;;;;;41.90;20.13;;;5.60;77.50;;;;;;5104372;28;20032;-74
2021/01/04 00:48:39;;;;;;;51.55;22.77;;;5.60;77.80;;;;;;5108826;28;20024;-75
2021/01/04 00:51:21;;;;;;;49.13;21.38;;;5.60;77.50;;;;;;5037615;28;20033;-74
2021/01/04 00:53:50;;;;;;;55.85;24.27;;;5.60;77.50;;;;;;5101342;28;20049;-75
2021/01/04 00:56:48;;;;;;;52.75;24.52;;;5.60;77.80;;;;;;5106465;28;20031;-74
2021/01/04 00:59:32;;;;;;;57.17;23.75;;;5.60;77.80;;;;;;5104967;28;20027;-77
2021/01/04 01:02:19;;;;;;;56.85;23.48;;;5.60;77.70;;;;;;5105411;28;20487;-75
2021/01/04 01:05:22;;;;;;;50.85;21.10;;;5.60;78.00;;;;;;5109587;28;20039;-73
2021/01/04 01:08:06;;;;;;;51.90;21.38;;;5.70;77.80;;;;;;5108587;28;20044;-75
2021/01/04 01:10:44;;;;;;;51.60;23.35;;;5.70;77.50;;;;;;5095942;28;20388;-76
2021/01/04 01:13:20;;;;;;;51.38;22.13;;;5.60;77.60;;;;;;5106452;28;20111;-74
2021/01/04 01:16:11;;;;;;;51.88;22.60;;;5.50;77.80;;;;;;5113970;28;20477;-75
2021/01/04 01:18:47;;;;;;;55.33;22.17;;;5.50;78.10;;;;;;5114984;28;20024;-74
2021/01/04 01:21:13;;;;;;;53.45;23.38;;;5.60;78.70;;;;;;5116457;28;20020;-73
2021/01/04 01:23:40;;;;;;;48.70;23.35;;;5.60;78.10;;;;;;5116508;28;20148;-75
2021/01/04 01:26:15;;;;;;;48.22;22.60;;;5.60;78.80;;;;;;5096012;28;20414;-74
2021/01/04 01:29:02;;;;;;;50.67;23.00;;;5.60;78.20;;;;;;5095608;28;20028;-73
2021/01/04 01:31:46;;;;;;;53.60;21.95;;;5.70;78.20;;;;;;5094402;28;20139;-74
2021/01/04 01:34:48;;;;;;;46.53;20.80;;;5.70;78.00;;;;;;5115467;28;20467;-74
2021/01/04 01:38:08;;;;;;;48.72;21.70;;;5.70;78.10;;;;;;5080707;28;20062;-73
2021/01/04 01:41:17;;;;;;;50.50;21.73;;;5.70;77.70;;;;;;5036432;28;20047;-75
2021/01/04 01:44:04;;;;;;;50.25;21.38;;;5.70;77.70;;;;;;5111411;28;20479;-74
2021/01/04 01:46:48;;;;;;;46.05;20.88;;;5.70;77.70;;;;;;5111559;28;20028;-74
2021/01/04 01:49:26;;;;;;;44.30;20.02;;;5.70;78.00;;;;;;5095368;28;20024;-74
2021/01/04 01:52:23;;;;;;;39.08;18.80;;;5.70;78.00;;;;;;5099566;28;20065;-74
2021/01/04 01:55:18;;;;;;;47.00;19.23;;;5.70;77.90;;;;;;5103019;28;20032;-74
2021/01/04 01:58:06;;;;;;;46.15;19.67;;;5.70;77.70;;;;;;5062703;28;20046;-73
2021/01/04 02:00:44;;;;;;;38.22;18.02;;;5.70;77.70;;;;;;5097231;28;20036;-74
2021/01/04 02:03:19;;;;;;;46.42;20.23;;;5.70;77.70;;;;;;5113390;28;20036;-74
2021/01/04 02:05:56;;;;;;;38.83;17.45;;;5.70;78.10;;;;;;5115806;28;20024;-73
2021/01/04 02:08:33;;;;;;;38.15;17.98;;;5.70;78.30;;;;;;5096339;28;20028;-74
2021/01/04 02:11:06;;;;;;;38.30;17.27;;;5.80;78.20;;;;;;5113476;28;20417;-75
2021/01/04 02:13:47;;;;;;;35.92;17.13;;;5.80;78.00;;;;;;5104885;28;20059;-75
2021/01/04 02:16:26;;;;;;;35.50;17.17;;;5.80;77.90;;;;;;5104601;28;20047;-74
2021/01/04 02:19:07;;;;;;;32.35;16.48;;;5.80;77.90;;;;;;5099556;28;20115;-74
2021/01/04 02:22:29;;;;;;;34.20;16.45;;;5.70;77.60;;;;;;5102833;28;20028;-75
2021/01/04 02:24:55;;;;;;;32.50;15.25;;;5.70;77.60;;;;;;5070325;28;20533;-74
2021/01/04 02:27:29;;;;;;;31.13;15.77;;;5.70;77.70;;;;;;5068692;28;20029;-75
2021/01/04 02:29:55;;;;;;;33.20;15.43;;;5.70;78.00;;;;;;5091347;27;20422;-73
2021/01/04 02:32:21;;;;;;;34.90;16.38;;;5.80;77.90;;;;;;5101591;28;20030;-74
2021/01/04 02:34:50;;;;;;;34.92;16.23;;;5.80;77.90;;;;;;5104584;28;20119;-75
2021/01/04 02:37:17;;;;;;;30.55;14.95;;;5.80;77.90;;;;;;5105688;28;20038;-73
2021/01/04 02:40:11;;;;;;;35.45;17.00;;;5.80;77.70;;;;;;5106292;28;20052;-73
2021/01/04 02:42:43;;;;;;;36.30;16.67;;;5.80;77.70;;;;;;5103009;28;20032;-74
2021/01/04 02:45:21;;;;;;;33.53;17.40;;;5.80;77.60;;;;;;5102699;28;20028;-76
2021/01/04 02:47:56;;;;;;;37.33;18.15;;;5.80;77.90;;;;;;5099472;28;20063;-75
2021/01/04 02:50:40;;;;;;;;;;;5.80;78.00;;;;;;5102186;28;20107;-74
2021/01/04 02:53:43;;;;;;;34.28;15.93;;;5.90;78.10;;;;;;5103534;28;20431;-73
2021/01/04 02:56:23;;;;;;;32.85;14.90;;;5.90;77.50;;;;;;5103323;28;20043;-75
2021/01/04 02:59:09;;;;;;;36.05;16.38;;;5.90;77.60;;;;;;5103709;28;20492;-75
2021/01/04 03:01:43;;;;;;;35.70;16.15;;;5.90;77.50;;;;;;5099048;28;20020;-80
2021/01/04 03:04:17;;;;;;;38.60;16.60;;;5.90;77.80;;;;;;5100942;28;20020;-75
2021/01/04 03:06:59;;;;;;;33.22;15.35;;;6.00;77.80;;;;;;5101817;28;20032;-75
2021/01/04 03:09:27;;;;;;;36.88;17.00;;;6.00;77.70;;;;;;5103247;28;20349;-74
2021/01/04 03:11:54;;;;;;;36.53;17.55;;;6.00;77.30;;;;;;5098796;28;20028;-74
2021/01/04 03:14:40;;;;;;;35.63;16.58;;;6.00;77.30;;;;;;5101139;28;20027;-75
2021/01/04 03:17:27;;;;;;;35.42;16.35;;;6.00;77.40;;;;;;5101262;28;20032;-74
2021/01/04 03:19:59;;;;;;;38.92;17.60;;;6.00;77.20;;;;;;5103833;28;20012;-75
2021/01/04 03:22:24;;;;;;;35.80;16.67;;;5.90;76.90;;;;;;5102917;28;20106;-72
2021/01/04 03:24:51;;;;;;;38.67;17.75;;;5.90;77.20;;;;;;5101638;28;20110;-75
2021/01/04 03:27:28;;;;;;;36.50;16.40;;;5.90;77.50;;;;;;5100395;28;20031;-73
2021/01/04 03:29:53;;;;;;;35.00;15.98;;;5.90;77.70;;;;;;5103859;28;20044;-74
2021/01/04 03:32:19;;;;;;;36.60;16.83;;;6.00;77.50;;;;;;5101419;28;20074;-75
2021/01/04 03:34:45;;;;;;;35.10;16.95;;;6.00;77.20;;;;;;5102175;28;20038;-72
2021/01/04 03:37:11;;;;;;;36.90;16.63;;;6.00;77.00;;;;;;5099819;28;20028;-73
2021/01/04 03:39:37;;;;;;;35.85;16.17;;;6.00;77.30;;;;;;5093536;28;20477;-74
2021/01/04 03:42:03;;;;;;;32.40;15.27;;;6.00;77.40;;;;;;5098612;28;20073;-74
2021/01/04 03:44:29;;;;;;;38.47;17.15;;;6.00;77.60;;;;;;5113816;28;20499;-74
2021/01/04 03:46:56;;;;;;;34.92;15.73;;;6.10;77.50;;;;;;5113371;28;20108;-74
2021/01/04 03:49:22;;;;;;;33.58;16.17;;;6.10;77.40;;;;;;5113472;28;20032;-74
2021/01/04 03:51:56;;;;;;;33.20;15.95;;;6.10;76.90;;;;;;5109029;28;20388;-74
2021/01/04 03:54:22;;;;;;;31.58;15.23;;;6.10;76.90;;;;;;5093319;28;20492;-74
2021/01/04 03:56:48;;;;;;;32.30;15.98;;;6.10;77.10;;;;;;5097300;28;20031;-74
2021/01/04 03:59:14;;;;;;;34.10;16.20;;;6.20;77.40;;;;;;5117006;28;20053;-74
2021/01/04 04:01:50;;;;;;;35.38;16.65;;;6.20;77.30;;;;;;5112234;28;20081;-73
2021/01/04 04:04:16;;;;;;;35.65;16.25;;;6.20;76.90;;;;;;5097555;28;20039;-73
2021/01/04 04:06:42;;;;;;;38.22;18.45;;;6.20;76.90;;;;;;5099841;28;20127;-75
2021/01/04 04:09:10;;;;;;;37.70;17.80;;;6.30;76.90;;;;;;5115858;28;20051;-74
2021/01/04 04:11:35;;;;;;;31.35;16.33;;;6.30;76.90;;;;;;5114837;28;20028;-73
2021/01/04 04:14:01;;;;;;;33.20;16.13;;;6.30;76.80;;;;;;5095787;28;20028;-73
2021/01/04 04:16:27;;;;;;;37.25;16.13;;;6.30;76.40;;;;;;5097267;28;20039;-73
2021/01/04 04:18:53;;;;;;;35.15;16.40;;;6.30;76.40;;;;;;5096793;28;20032;-74
2021/01/04 04:21:18;;;;;;;34.03;16.40;;;6.30;76.50;;;;;;5097030;28;20032;-75
2021/01/04 04:23:44;;;;;;;37.60;17.02;;;6.30;76.60;;;;;;5116103;28;20471;-74
2021/01/04 04:26:18;;;;;;;32.63;17.20;;;6.30;76.40;;;;;;5117523;28;20106;-74
2021/01/04 04:28:44;;;;;;;30.98;15.65;;;6.40;76.60;;;;;;5097125;28;20055;-74
2021/01/04 04:31:12;;;;;;;35.10;17.23;;;6.40;76.40;;;;;;5096919;28;20039;-75
2021/01/04 04:33:39;;;;;;;35.38;16.38;;;6.40;76.10;;;;;;5098235;28;20085;-73
2021/01/04 04:36:08;;;;;;;31.90;16.88;;;6.40;76.20;;;;;;5095395;28;20028;-74
2021/01/04 04:38:34;;;;;;;35.90;17.45;;;6.40;76.00;;;;;;5095248;28;20420;-73
2021/01/04 04:41:00;;;;;;;35.28;17.48;;;6.40;76.40;;;;;;5095307;28;20067;-74
2021/01/04 04:43:45;;;;;;;32.22;16.42;;;6.40;76.10;;;;;;5111879;28;20119;-73
2021/01/04 04:46:28;;;;;;;37.60;16.73;;;6.40;75.60;;;;;;5116670;28;20057;-73
2021/01/04 04:48:55;;;;;;;37.03;17.55;;;6.30;75.50;;;;;;5116663;28;20063;-73
2021/01/04 04:51:41;;;;;;;34.60;16.95;;;6.30;75.80;;;;;;5114883;28;20028;-74
2021/01/04 04:54:16;;;;;;;35.50;18.05;;;6.30;75.80;;;;;;5107579;28;20020;-74
2021/01/04 04:57:09;;;;;;;36.53;17.48;;;6.20;75.70;;;;;;5116916;28;20416;-74
2021/01/04 05:00:04;;;;;;;38.63;18.45;;;6.20;75.80;;;;;;5116388;28;20107;-74
2021/01/04 05:03:01;;;;;;;36.28;18.75;;;6.20;75.40;;;;;;5108000;27;20028;-73
2021/01/04 05:05:50;;;;;;;38.50;17.95;;;6.10;75.40;;;;;;5096162;28;20028;-74
2021/01/04 05:08:42;;;;;;;38.85;19.35;;;6.10;75.50;;;;;;5095774;28;20028;-74
2021/01/04 05:11:10;;;;;;;39.28;18.23;;;6.00;75.90;;;;;;5093159;28;20373;-73
2021/01/04 05:13:46;;;;;;;40.35;18.45;;;6.10;76.00;;;;;;5097807;28;20024;-74
2021/01/04 05:16:21;;;;;;;41.92;18.60;;;6.10;75.90;;;;;;5096067;28;20036;-73
2021/01/04 05:18:58;;;;;;;;;;;6.10;75.80;;;;;;5095184;28;20027;-74
2021/01/04 05:21:32;;;;;;;43.72;18.92;;;6.00;75.40;;;;;;5096901;28;19904;-73
2021/01/04 05:24:35;;;;;;;43.20;18.65;;;6.00;75.20;;;;;;5113988;28;20035;-74
2021/01/04 05:27:32;;;;;;;41.75;18.35;;;5.90;75.30;;;;;;5115896;28;20032;-74
2021/01/04 05:30:32;;;;;;;45.50;19.75;;;5.90;75.40;;;;;;5116024;28;20027;-74
2021/01/04 05:33:19;;;;;;;44.13;19.67;;;5.80;75.50;;;;;;5104437;28;20353;-74
2021/01/04 05:35:46;;;;;;;47.08;20.77;;;5.80;76.50;;;;;;5095521;28;20047;-74
2021/01/04 05:38:25;;;;;;;39.47;18.65;;;5.80;76.00;;;;;;5094193;28;20056;-74
2021/01/04 05:41:24;;;;;;;40.72;19.33;;;5.80;76.10;;;;;;5094201;28;20143;-74
2021/01/04 05:44:06;;;;;;;45.75;21.45;;;5.80;76.30;;;;;;5071078;28;20123;-75
2021/01/04 05:46:53;;;;;;;46.08;19.42;;;5.90;76.20;;;;;;5096099;28;20403;-74
2021/01/04 05:49:22;;;;;;;43.90;20.40;;;5.90;76.20;;;;;;5115387;28;20435;-73
2021/01/04 05:51:49;;;;;;;45.60;21.38;;;5.90;76.10;;;;;;5115141;28;20127;-74
2021/01/04 05:54:26;;;;;;;49.70;21.70;;;6.00;76.00;;;;;;5105473;28;20016;-73
2021/01/04 05:57:03;;;;;;;46.78;20.67;;;6.00;75.70;;;;;;5094791;28;20096;-75
2021/01/04 05:59:29;;;;;;;52.63;22.88;;;5.90;75.60;;;;;;5095858;28;20103;-73
2021/01/04 06:02:02;;;;;;;52.90;22.77;;;5.90;75.50;;;;;;5093832;28;20075;-76
2021/01/04 06:04:28;;;;;;;50.30;24.08;;;5.80;75.80;;;;;;5100351;28;20032;-74
2021/01/04 06:06:56;;;;;;;54.25;24.48;;;5.90;76.00;;;;;;5115136;28;20023;-74
2021/01/04 06:09:23;;;;;;;55.60;25.27;;;5.90;76.10;;;;;;5113971;28;20027;-73
2021/01/04 06:11:57;;;;;;;57.83;26.75;;;5.90;76.00;;;;;;5113254;28;20080;-75
2021/01/04 06:14:27;;;;;;;59.13;27.02;;;6.00;75.80;;;;;;5094997;28;20028;-75
2021/01/04 06:17:09;;;;;;;62.53;27.00;;;6.00;75.80;;;;;;5095329;28;20039;-74
2021/01/04 06:19:51;;;;;;;57.03;27.13;;;6.00;76.00;;;;;;5095500;28;20083;-75
2021/01/04 06:22:17;;;;;;;58.33;25.05;;;6.00;76.20;;;;;;5093869;28;20028;-75
2021/01/04 06:24:45;;;;;;;52.15;23.52;;;6.10;76.40;;;;;;5095013;28;20035;-75
2021/01/04 06:27:25;;;;;;;55.22;23.92;;;6.20;76.40;;;;;;5094746;28;20027;-74
2021/01/04 06:29:51;;;;;;;55.13;24.83;;;6.30;76.30;;;;;;5102172;28;20050;-73
2021/01/04 06:32:30;;;;;;;56.30;24.88;;;6.30;75.60;;;;;;5113008;28;20431;-74
2021/01/04 06:35:17;;;;;;;55.72;24.73;;;6.40;75.20;;;;;;5113557;28;20031;-74
2021/01/04 06:37:44;;;;;;;56.55;23.73;;;6.30;75.40;;;;;;5097213;28;20044;-74
2021/01/04 06:40:35;;;;;;;55.10;24.65;;;6.40;75.20;;;;;;5097724;28;20027;-75
2021/01/04 06:43:19;;;;;;;52.83;23.63;;;6.40;75.30;;;;;;5106736;28;20421;-75
2021/01/04 06:46:09;;;;;;;60.40;24.88;;;6.40;75.40;;;;;;5113279;28;20027;-75
2021/01/04 06:48:43;;;;;;;56.53;24.83;;;6.50;75.00;;;;;;5094466;28;20153;-75
2021/01/04 06:51:47;;;;;;;57.55;25.67;;;6.40;75.10;;;;;;5111024;28;20043;-74
2021/01/04 06:54:50;;;;;;;57.60;23.90;;;6.50;75.20;;;;;;5100739;28;20047;-75
2021/01/04 06:57:35;;;;;;;57.65;25.98;;;6.60;75.20;;;;;;5114466;28;20024;-75
2021/01/04 07:00:19;;;;;;;57.53;24.33;;;6.60;74.90;;;;;;5104931;28;20063;-73
2021/01/04 07:03:06;;;;;;;60.23;24.73;;;6.60;74.70;;;;;;5101691;28;20039;-74
2021/01/04 07:05:32;;;;;;;55.53;23.50;;;6.60;74.50;;;;;;5093935;28;20460;-75
2021/01/04 07:08:35;;;;;;;59.47;25.92;;;6.60;74.20;;;;;;5107973;28;20118;-75
2021/01/04 07:11:01;;;;;;;63.30;27.08;;;6.50;74.00;;;;;;5096803;28;20031;-75
2021/01/04 07:13:50;;;;;;;56.80;25.80;;;6.50;74.40;;;;;;5093292;28;20032;-74
2021/01/04 07:16:16;;;;;;;63.42;26.23;;;6.50;74.60;;;;;;5092381;28;20047;-74
2021/01/04 07:19:02;;;;;;;63.58;27.98;;;6.50;74.60;;;;;;5093666;28;20024;-76
2021/01/04 07:21:46;;;;;;;61.33;27.13;;;6.50;74.00;;;;;;5101173;28;20020;-74
2021/01/04 07:24:33;;;;;;;59.72;27.05;;;6.50;74.00;;;;;;5092849;28;20028;-75
2021/01/04 07:27:17;;;;;;;66.43;27.80;;;6.40;74.10;;;;;;5094747;28;20711;-74
2021/01/04 07:30:00;;;;;;;64.03;28.85;;;6.40;74.20;;;;;;5103767;28;20122;-77
2021/01/04 07:32:55;;;;;;;61.47;27.20;;;6.40;74.10;;;;;;5111580;28;20427;-75
2021/01/04 07:35:30;;;;;;;63.33;26.40;;;6.40;74.20;;;;;;5100213;28;20387;-73
2021/01/04 07:37:55;;;;;;;62.08;28.48;;;6.40;74.20;;;;;;5101730;28;20760;-75
2021/01/04 07:40:24;;;;;;;63.58;26.63;;;6.40;74.20;;;;;;5103142;28;20031;-75
2021/01/04 07:43:17;;;;;;;57.63;24.45;;;6.50;74.30;;;;;;5101475;28;20099;-74
2021/01/04 07:45:52;;;;;;;59.10;25.10;;;6.50;74.40;;;;;;5102869;28;20020;-74
2021/01/04 07:49:22;;;;;;;62.08;25.95;;;6.60;74.30;;;;;;5101549;28;20020;-74
2021/01/04 07:52:29;;;;;;;60.00;25.88;;;6.60;74.00;;;;;;5017124;28;20046;-75
2021/01/04 07:55:28;;;;;;;62.33;26.60;;;6.60;73.30;;;;;;5005935;28;20440;-75
2021/01/04 07:58:33;;;;;;;55.55;24.27;;;6.50;73.50;;;;;;5098030;28;20055;-75
2021/01/04 08:01:05;;;;;;;58.70;25.45;;;6.40;73.70;;;;;;5113381;28;20039;-74
2021/01/04 08:03:30;;;;;;;57.92;26.17;;;6.40;73.70;;;;;;5113242;28;20020;-76
2021/01/04 08:06:34;;;;;;;57.53;26.92;;;6.40;73.50;;;;;;5096976;28;20395;-74
2021/01/04 08:09:16;;;;;;;64.55;28.35;;;6.30;73.50;;;;;;5112388;28;20026;-74
2021/01/04 08:12:02;;;;;;;65.45;27.50;;;6.30;74.00;;;;;;5112784;28;20419;-75
2021/01/04 08:14:44;;;;;;;65.93;27.50;;;6.30;73.90;;;;;;5099595;28;20024;-74
2021/01/04 08:17:18;;;;;;;61.20;27.63;;;6.30;74.30;;;;;;5091895;28;20041;-74
2021/01/04 08:19:45;;;;;;;61.15;27.33;;;6.40;74.40;;;;;;5096104;28;20438;-75
2021/01/04 08:22:10;;;;;;;54.92;25.42;;;6.40;74.10;;;;;;5102099;28;20028;-75
2021/01/04 08:24:49;;;;;;;61.05;27.30;;;6.40;73.70;;;;;;5113433;28;20463;-73
2021/01/04 08:27:33;;;;;;;64.95;27.27;;;6.40;73.80;;;;;;5112808;28;20111;-75
2021/01/04 08:30:10;;;;;;;58.87;25.90;;;6.40;73.90;;;;;;5112309;28;20126;-76
2021/01/04 08:33:00;;;;;;;60.63;26.80;;;6.40;74.10;;;;;;5113446;28;20344;-76
2021/01/04 08:35:29;;;;;;;55.60;25.35;;;6.40;74.20;;;;;;5113203;28;20039;-75
2021/01/04 08:37:58;;;;;;;58.88;26.08;;;6.40;74.20;;;;;;5108394;28;20056;-76
2021/01/04 08:40:34;;;;;;;57.63;27.20;;;6.50;74.50;;;;;;5113672;28;20019;-76
2021/01/04 08:43:10;;;;;;;61.35;26.08;;;6.60;74.40;;;;;;5112179;28;20452;-74
2021/01/04 08:45:46;;;;;;;57.53;25.85;;;6.70;74.10;;;;;;5111634;28;20376;-75
2021/01/04 08:48:19;;;;;;;56.85;26.15;;;6.80;74.00;;;;;;5096389;28;20030;-76
2021/01/04 08:51:00;;;;;;;56.50;26.70;;;6.80;73.80;;;;;;5117186;28;20020;-74
2021/01/04 08:53:25;;;;;;;64.40;29.00;;;6.90;73.50;;;;;;5105191;28;20031;-77
2021/01/04 08:56:02;;;;;;;67.07;30.88;;;6.90;73.70;;;;;;5103407;28;20107;-77
2021/01/04 08:58:40;;;;;;;69.78;30.30;;;7.00;73.50;;;;;;5103202;28;20024;-75
2021/01/04 09:01:12;;;;;;;69.40;29.52;;;7.00;73.40;;;;;;5101552;28;20090;-75
2021/01/04 09:03:39;;;;;;;77.53;30.77;;;7.10;73.40;;;;;;5103819;28;20024;-76
2021/01/04 09:06:11;;;;;;;65.75;28.60;;;7.20;73.20;;;;;;5105140;28;20475;-75
2021/01/04 09:08:47;;;;;;;89.57;36.83;;;7.30;73.10;;;;;;5106060;28;20020;-76
2021/01/04 09:11:15;;;;;;;74.85;32.03;;;7.30;72.70;;;;;;5106079;28;20024;-75
2021/01/04 09:13:42;;;;;;;88.65;34.95;;;7.40;72.50;;;;;;5104260;28;20124;-74
2021/01/04 09:16:31;;;;;;;130.13;48.40;;;7.40;72.40;;;;;;5107823;28;20067;-75
2021/01/04 09:19:20;;;;;;;128.52;48.45;;;7.50;71.90;;;;;;5108029;28;20024;-78
2021/01/04 09:21:46;;;;;;;92.50;37.50;;;7.50;71.80;;;;;;5108363;28;20024;-75
2021/01/04 09:24:15;;;;;;;86.13;32.72;;;7.60;71.70;;;;;;5103695;28;20490;-76
2021/01/04 09:26:43;;;;;;;73.82;32.13;;;7.60;71.80;;;;;;5104681;28;20031;-78
2021/01/04 09:29:12;;;;;;;85.80;33.17;;;7.60;71.70;;;;;;5108482;28;20123;-76
2021/01/04 09:32:07;;;;;;;63.40;27.02;;;7.70;71.40;;;;;;5102516;28;20019;-74
2021/01/04 09:34:33;;;;;;;70.17;28.53;;;7.80;70.90;;;;;;5114706;28;20045;-75
2021/01/04 09:37:23;;;;;;;99.07;34.33;;;7.80;71.00;;;;;;5105964;28;20132;-80
2021/01/04 09:39:53;;;;;;;59.80;26.48;;;7.80;70.50;;;;;;5115717;28;20070;-74
2021/01/04 09:42:26;;;;;;;46.28;22.80;;;7.90;70.40;;;;;;5116471;28;20102;-75
2021/01/04 09:44:54;;;;;;;45.70;21.02;;;7.80;70.10;;;;;;5115949;28;20028;-77
2021/01/04 09:47:36;;;;;;;46.35;23.02;;;7.80;69.90;;;;;;5116373;28;20391;-74
2021/01/04 09:50:10;;;;;;;45.03;21.92;;;7.70;69.70;;;;;;5114169;28;20030;-75
2021/01/04 09:53:11;;;;;;;45.50;21.67;;;7.70;70.20;;;;;;5112492;28;20037;-74
2021/01/04 09:55:44;;;;;;;42.53;20.95;;;7.70;70.20;;;;;;5115787;28;20050;-76
2021/01/04 09:58:10;;;;;;;42.10;18.80;;;7.80;69.90;;;;;;5107529;28;20425;-74
2021/01/04 10:00:38;;;;;;;39.50;19.67;;;7.70;69.50;;;;;;5100465;28;20032;-75
2021/01/04 10:03:11;;;;;;;38.70;18.63;;;7.70;69.40;;;;;;5095240;28;20035;-74
2021/01/04 10:05:40;;;;;;;38.50;19.00;;;7.60;69.60;;;;;;5095186;28;20401;-73
2021/01/04 10:08:12;;;;;;;38.58;18.52;;;7.60;69.70;;;;;;5094471;28;20471;-74
2021/01/04 10:10:41;;;;;;;38.58;17.98;;;7.60;70.00;;;;;;5094650;28;20425;-80
2021/01/04 10:13:12;;;;;;;46.72;22.17;;;7.70;69.70;;;;;;5094706;28;20039;-77
2021/01/04 10:15:40;;;;;;;42.70;19.80;;;7.70;69.80;;;;;;5096675;28;20028;-76
2021/01/04 10:18:27;;;;;;;46.15;21.15;;;7.80;70.00;;;;;;5095795;28;20059;-76
2021/01/04 10:20:58;;;;;;;53.67;24.33;;;7.90;69.90;;;;;;5099690;28;20028;-78
2021/01/04 10:23:39;;;;;;;50.15;23.45;;;8.00;69.70;;;;;;5091441;28;20127;-73
2021/01/04 10:26:08;;;;;;;64.05;28.50;;;8.10;69.70;;;;;;5089491;28;20489;-74
2021/01/04 10:28:37;;;;;;;62.42;29.25;;;8.20;69.70;;;;;;5092822;28;20031;-74
2021/01/04 10:31:09;;;;;;;63.05;29.60;;;8.30;69.10;;;;;;5093027;28;20024;-75
2021/01/04 10:33:39;;;;;;;58.47;28.02;;;8.30;69.10;;;;;;5094668;28;20028;-75
2021/01/04 10:36:09;;;;;;;59.05;28.33;;;8.30;68.80;;;;;;5090862;28;20043;-75
2021/01/04 10:41:12;;;;;;;61.15;28.48;;;8.30;68.40;;;;;;5098080;28;20051;-75
2021/01/04 10:43:38;;;;;;;58.35;26.73;;;8.20;68.30;;;;;;5109117;28;20119;-74
2021/01/04 10:46:34;;;;;;;55.53;26.27;;;8.10;68.70;;;;;;5113964;28;20055;-75
2021/01/04 10:49:22;;;;;;;47.10;23.13;;;8.20;68.90;;;;;;5114818;28;20064;-77
2021/01/04 10:51:52;;;;;;;53.40;25.25;;;8.20;68.90;;;;;;5114612;28;20488;-76
2021/01/04 10:54:34;;;;;;;54.10;25.08;;;8.20;68.60;;;;;;5115322;28;20034;-75
2021/01/04 10:57:12;;;;;;;58.72;27.38;;;8.20;68.20;;;;;;5114612;28;20027;-73
2021/01/04 10:59:54;;;;;;;54.08;25.45;;;8.10;68.30;;;;;;5113203;28;20024;-74
2021/01/04 11:02:20;;;;;;;55.28;26.15;;;8.10;68.50;;;;;;5114410;28;20083;-74
2021/01/04 11:04:53;;;;;;;58.67;25.67;;;8.10;68.90;;;;;;5112941;28;20031;-76
2021/01/04 11:07:28;;;;;;;54.70;25.90;;;8.20;69.00;;;;;;5114255;28;20123;-75
2021/01/04 11:09:55;;;;;;;61.63;30.08;;;8.20;68.90;;;;;;5113015;28;20358;-75
2021/01/04 11:12:26;;;;;;;61.13;29.98;;;8.30;68.90;;;;;;5114820;28;20468;-74
2021/01/04 11:15:04;;;;;;;51.92;24.10;;;8.40;68.80;;;;;;5112975;28;20035;-74
2021/01/04 11:17:34;;;;;;;49.70;23.95;;;8.40;68.60;;;;;;5114367;28;20020;-74
2021/01/04 11:20:14;;;;;;;47.45;23.17;;;8.50;68.50;;;;;;5113147;28;20024;-79
2021/01/04 11:22:41;;;;;;;50.42;24.73;;;8.50;68.00;;;;;;5113478;28;20024;-75
2021/01/04 11:25:07;;;;;;;49.88;24.20;;;8.40;67.90;;;;;;5112818;28;20091;-71
2021/01/04 11:27:33;;;;;;;51.15;24.25;;;8.40;68.10;;;;;;5114352;28;20100;-77
2021/01/04 11:29:59;;;;;;;48.40;24.33;;;8.40;68.00;;;;;;5114466;28;20425;-77
2021/01/04 11:32:25;;;;;;;49.90;24.58;;;8.40;68.10;;;;;;5114247;28;20019;-78
2021/01/04 11:34:53;;;;;;;50.15;23.40;;;8.40;68.00;;;;;;5113696;28;20027;-78
2021/01/04 11:37:21;;;;;;;50.88;23.67;;;8.40;68.00;;;;;;5113953;28;20028;-77
2021/01/04 11:39:47;;;;;;;46.17;22.60;;;8.40;68.00;;;;;;5114741;28;20133;-77
2021/01/04 11:42:13;;;;;;;47.38;22.70;;;8.40;67.90;;;;;;5114547;28;20479;-76
2021/01/04 11:44:39;;;;;;;48.15;22.35;;;8.40;67.90;;;;;;5115459;28;20397;-77
2021/01/04 11:47:05;;;;;;;58.95;24.90;;;8.40;67.80;;;;;;5115128;28;20076;-81
2021/01/04 11:49:32;;;;;;;49.38;22.73;;;8.40;67.70;;;;;;5115643;28;20038;-78
2021/01/04 11:51:57;;;;;;;43.92;23.10;;;8.30;67.70;;;;;;5114883;28;20020;-73
2021/01/04 11:54:23;;;;;;;45.20;21.55;;;8.40;67.70;;;;;;5114024;28;20035;-75
2021/01/04 11:56:50;;;;;;;43.75;21.30;;;8.30;67.70;;;;;;5114549;28;20032;-74
2021/01/04 11:59:16;;;;;;;41.08;21.27;;;8.30;67.50;;;;;;5112726;28;20024;-75
2021/01/04 12:01:42;;;;;;;46.95;21.92;;;8.30;67.70;;;;;;5114003;28;20359;-75
2021/01/04 12:04:08;;;;;;;46.38;21.10;;;8.30;67.60;;;;;;5113702;28;20095;-75
2021/01/04 12:06:35;;;;;;;40.05;19.27;;;8.20;67.60;;;;;;5113666;28;20471;-75
2021/01/04 12:09:02;;;;;;;38.45;21.52;;;8.20;67.60;;;;;;5112443;28;20062;-76
2021/01/04 12:11:37;;;;;;;40.30;19.98;;;8.20;67.70;;;;;;5113339;28;20027;-75
2021/01/04 12:14:04;;;;;;;42.20;19.20;;;8.10;67.70;;;;;;5113662;28;20502;-73
2021/01/04 12:16:33;;;;;;;38.70;19.55;;;8.10;67.80;;;;;;5113813;28;20073;-74
2021/01/04 12:18:59;;;;;;;43.70;19.98;;;8.10;67.80;;;;;;5113627;28;20032;-74
2021/01/04 12:21:26;;;;;;;37.58;17.60;;;8.10;67.90;;;;;;5117125;28;20032;-75
2021/01/04 12:23:52;;;;;;;35.70;17.90;;;8.10;67.90;;;;;;5116292;28;20035;-75
2021/01/04 12:26:18;;;;;;;35.13;17.58;;;8.00;67.80;;;;;;5117127;28;20030;-74
2021/01/04 12:28:48;;;;;;;38.72;18.90;;;8.10;67.90;;;;;;5117614;28;20038;-76
2021/01/04 12:31:16;;;;;;;35.53;18.25;;;8.00;67.80;;;;;;5116036;28;20069;-74
2021/01/04 12:33:42;;;;;;;36.08;17.85;;;8.10;67.90;;;;;;5117101;28;20100;-73
2021/01/04 12:36:22;;;;;;;38.95;19.65;;;8.00;67.70;;;;;;5117052;28;20108;-74
2021/01/04 12:38:48;;;;;;;35.03;17.15;;;8.00;67.60;;;;;;5117609;28;20047;-76
2021/01/04 12:41:15;;;;;;;38.72;18.48;;;7.90;67.40;;;;;;5116816;28;20020;-74
2021/01/04 12:43:43;;;;;;;32.83;17.13;;;7.80;67.40;;;;;;5116049;28;20106;-74
2021/01/04 12:46:09;;;;;;;37.42;17.98;;;7.60;67.40;;;;;;5117355;28;20058;-74
2021/01/04 12:48:35;;;;;;;32.95;16.92;;;7.50;67.90;;;;;;5116990;28;20054;-74
2021/01/04 12:51:00;;;;;;;33.03;16.33;;;7.50;68.40;;;;;;5117260;28;20022;-79
2021/01/04 12:53:26;;;;;;;29.33;15.40;;;7.50;68.40;;;;;;5116608;28;20023;-74
2021/01/04 12:55:52;;;;;;;36.28;17.05;;;7.50;68.50;;;;;;5117322;28;20036;-73
2021/01/04 12:58:20;;;;;;;35.22;17.52;;;7.50;68.60;;;;;;5115612;28;20024;-75
2021/01/04 13:00:47;;;;;;;37.40;16.85;;;7.40;68.30;;;;;;5116056;28;20054;-73
2021/01/04 13:03:14;;;;;;;36.58;16.73;;;7.30;68.80;;;;;;5115533;28;20063;-74
2021/01/04 13:05:40;;;;;;;30.98;16.02;;;7.30;68.40;;;;;;5115509;28;20035;-74
2021/01/04 13:08:06;;;;;;;29.52;15.32;;;7.20;68.20;;;;;;5117069;28;20110;-73
2021/01/04 13:10:32;;;;;;;31.25;15.52;;;7.10;68.20;;;;;;5115388;28;20088;-75
2021/01/04 13:12:57;;;;;;;30.55;15.65;;;7.00;68.30;;;;;;5116331;28;20055;-76
2021/01/04 13:15:23;;;;;;;32.45;16.08;;;6.80;68.00;;;;;;5116490;28;20032;-76
2021/01/04 13:17:50;;;;;;;27.45;14.80;;;6.60;68.40;;;;;;5115341;28;20072;-72
2021/01/04 13:20:16;;;;;;;28.73;14.55;;;6.50;68.70;;;;;;5115242;28;20027;-76
2021/01/04 13:22:42;;;;;;;28.90;15.50;;;6.40;68.90;;;;;;5116293;28;20580;-72
2021/01/04 13:25:12;;;;;;;30.45;15.02;;;6.30;69.30;;;;;;5116528;28;20364;-73
2021/01/04 13:27:38;;;;;;;25.33;14.32;;;6.30;69.60;;;;;;5116879;28;20027;-72